KPIA/PIA METAR and TAF weather

Enter ICAO airport designator
Station Type Date Time Source
KPIA METAR 2019/04/18 21:54 UTC NOAA

KPIA 182154Z VRB05G17KT 10SM OVC031 10/04 A2975 RMK AO2 SLP074 T01000044


Station Type Date Time Source
KPIA Decoded METAR 2019/04/18 21:54 UTC NOAA

GREATER PEORIA REGIONAL AIRPORT , IL, United States (KPIA) 40-40N 89-41W 205M
Apr 18, 2019 - 05:54 PM EDT / 2019.04.18 2154 UTC
Wind: Variable at 6 MPH (5 KT) gusting to 20 MPH (17 KT):0
Visibility: 10 mile(s):0
Sky conditions: overcast
Temperature: 50.0 F (10.0 C)
Dew Point: 39.9 F (4.4 C)
Relative Humidity: 68%
Pressure (altimeter): 29.75 in. Hg (1007 hPa)
ob: KPIA 182154Z VRB05G17KT 10SM OVC031 10/04 A2975 RMK AO2 SLP074 T01000044
cycle: 22

Station Type Date Time Source
KPIA TAF 2019/04/18 22:16 UTC NOAA

TAF
AMD KPIA 182214Z 1822/1918 33010G18KT P6SM OVC035
FM190000 34012KT P6SM OVC035
FM190500 01014G22KT P6SM BKN018
FM191600 36016G25KT P6SM SCT040

Example: see airport list